sensor_id;sensor_type;location;lat;lon;timestamp;P1;durP1;ratioP1;P2;durP2;ratioP2
69485;SDS011;56677;51.710;5.366;2022-09-17T00:01:36;7.37;;;3.97;;
69485;SDS011;56677;51.710;5.366;2022-09-17T00:04:01;8.20;;;4.00;;
69485;SDS011;56677;51.710;5.366;2022-09-17T00:06:26;7.23;;;4.17;;
69485;SDS011;56677;51.710;5.366;2022-09-17T00:08:52;7.38;;;3.88;;
69485;SDS011;56677;51.710;5.366;2022-09-17T00:11:28;8.20;;;4.13;;
69485;SDS011;56677;51.710;5.366;2022-09-17T00:13:54;7.57;;;3.90;;
69485;SDS011;56677;51.710;5.366;2022-09-17T00:16:26;6.63;;;3.83;;
69485;SDS011;56677;51.710;5.366;2022-09-17T00:18:52;8.07;;;4.38;;
69485;SDS011;56677;51.710;5.366;2022-09-17T00:21:18;9.20;;;4.27;;
69485;SDS011;56677;51.710;5.366;2022-09-17T00:23:43;7.75;;;3.97;;
69485;SDS011;56677;51.710;5.366;2022-09-17T00:26:08;8.03;;;3.80;;
69485;SDS011;56677;51.710;5.366;2022-09-17T00:28:33;8.55;;;4.20;;
69485;SDS011;56677;51.710;5.366;2022-09-17T00:30:59;6.75;;;3.28;;
69485;SDS011;56677;51.710;5.366;2022-09-17T00:33:24;6.70;;;3.42;;
69485;SDS011;56677;51.710;5.366;2022-09-17T00:35:59;7.75;;;3.85;;
69485;SDS011;56677;51.710;5.366;2022-09-17T00:38:24;7.57;;;3.80;;
69485;SDS011;56677;51.710;5.366;2022-09-17T00:40:49;8.47;;;3.93;;
69485;SDS011;56677;51.710;5.366;2022-09-17T00:43:29;6.50;;;3.20;;
69485;SDS011;56677;51.710;5.366;2022-09-17T00:45:56;5.82;;;3.55;;
69485;SDS011;56677;51.710;5.366;2022-09-17T00:48:21;7.07;;;3.38;;
69485;SDS011;56677;51.710;5.366;2022-09-17T00:50:46;6.97;;;3.50;;
69485;SDS011;56677;51.710;5.366;2022-09-17T00:53:15;7.40;;;3.40;;
69485;SDS011;56677;51.710;5.366;2022-09-17T00:55:45;7.00;;;3.63;;
69485;SDS011;56677;51.710;5.366;2022-09-17T00:58:11;7.63;;;4.00;;
69485;SDS011;56677;51.710;5.366;2022-09-17T01:00:38;6.78;;;3.20;;
69485;SDS011;56677;51.710;5.366;2022-09-17T01:03:03;11.87;;;3.50;;
69485;SDS011;56677;51.710;5.366;2022-09-17T01:05:35;7.07;;;3.60;;
69485;SDS011;56677;51.710;5.366;2022-09-17T01:08:12;6.43;;;3.55;;
69485;SDS011;56677;51.710;5.366;2022-09-17T01:10:53;6.93;;;3.47;;
69485;SDS011;56677;51.710;5.366;2022-09-17T01:15:53;6.70;;;3.00;;
69485;SDS011;56677;51.710;5.366;2022-09-17T01:18:39;6.55;;;3.15;;
69485;SDS011;56677;51.710;5.366;2022-09-17T01:21:30;6.53;;;3.30;;
69485;SDS011;56677;51.710;5.366;2022-09-17T01:31:47;6.83;;;3.10;;
69485;SDS011;56677;51.710;5.366;2022-09-17T01:34:33;7.38;;;3.15;;
69485;SDS011;56677;51.710;5.366;2022-09-17T01:39:48;6.88;;;3.15;;
69485;SDS011;56677;51.710;5.366;2022-09-17T01:42:29;7.10;;;2.88;;
69485;SDS011;56677;51.710;5.366;2022-09-17T01:45:03;5.37;;;3.07;;
69485;SDS011;56677;51.710;5.366;2022-09-17T01:47:41;6.50;;;3.58;;
69485;SDS011;56677;51.710;5.366;2022-09-17T01:50:12;5.43;;;2.60;;
69485;SDS011;56677;51.710;5.366;2022-09-17T01:52:38;5.85;;;2.70;;
69485;SDS011;56677;51.710;5.366;2022-09-17T01:55:06;6.63;;;2.83;;
69485;SDS011;56677;51.710;5.366;2022-09-17T01:57:35;5.23;;;3.07;;
69485;SDS011;56677;51.710;5.366;2022-09-17T02:00:06;6.65;;;3.00;;
69485;SDS011;56677;51.710;5.366;2022-09-17T02:03:06;6.85;;;3.08;;
69485;SDS011;56677;51.710;5.366;2022-09-17T02:05:26;4.40;;;2.40;;
69485;SDS011;56677;51.710;5.366;2022-09-17T02:08:03;6.50;;;2.65;;
69485;SDS011;56677;51.710;5.366;2022-09-17T02:10:30;5.27;;;2.70;;
69485;SDS011;56677;51.710;5.366;2022-09-17T02:15:47;7.00;;;2.83;;
69485;SDS011;56677;51.710;5.366;2022-09-17T02:18:25;5.20;;;2.45;;
69485;SDS011;56677;51.710;5.366;2022-09-17T02:20:56;7.93;;;3.10;;
69485;SDS011;56677;51.710;5.366;2022-09-17T02:23:27;4.70;;;2.23;;
69485;SDS011;56677;51.710;5.366;2022-09-17T02:25:57;6.35;;;2.45;;
69485;SDS011;56677;51.710;5.366;2022-09-17T02:30:55;5.82;;;2.65;;
69485;SDS011;56677;51.710;5.366;2022-09-17T02:33:20;5.78;;;2.70;;
69485;SDS011;56677;51.710;5.366;2022-09-17T02:35:46;7.43;;;2.20;;
69485;SDS011;56677;51.710;5.366;2022-09-17T02:38:11;4.97;;;2.47;;
69485;SDS011;56677;51.710;5.366;2022-09-17T02:40:40;4.90;;;2.67;;
69485;SDS011;56677;51.710;5.366;2022-09-17T02:43:20;5.35;;;2.22;;
69485;SDS011;56677;51.710;5.366;2022-09-17T02:53:51;6.30;;;2.13;;
69485;SDS011;56677;51.710;5.366;2022-09-17T02:56:25;6.88;;;2.78;;
69485;SDS011;56677;51.710;5.366;2022-09-17T03:01:23;6.53;;;2.65;;
69485;SDS011;56677;51.710;5.366;2022-09-17T03:03:49;5.77;;;2.30;;
69485;SDS011;56677;51.710;5.366;2022-09-17T03:06:15;4.50;;;2.30;;
69485;SDS011;56677;51.710;5.366;2022-09-17T03:08:40;5.30;;;2.27;;
69485;SDS011;56677;51.710;5.366;2022-09-17T03:11:06;3.78;;;2.10;;
69485;SDS011;56677;51.710;5.366;2022-09-17T03:13:32;5.83;;;2.37;;
69485;SDS011;56677;51.710;5.366;2022-09-17T03:15:57;4.15;;;2.22;;
69485;SDS011;56677;51.710;5.366;2022-09-17T03:18:22;5.50;;;2.65;;
69485;SDS011;56677;51.710;5.366;2022-09-17T03:20:47;5.57;;;2.25;;
69485;SDS011;56677;51.710;5.366;2022-09-17T03:23:12;5.47;;;2.33;;
69485;SDS011;56677;51.710;5.366;2022-09-17T03:25:37;5.00;;;2.35;;
69485;SDS011;56677;51.710;5.366;2022-09-17T03:28:03;4.80;;;1.92;;
69485;SDS011;56677;51.710;5.366;2022-09-17T03:30:28;4.75;;;2.22;;
69485;SDS011;56677;51.710;5.366;2022-09-17T03:32:53;5.43;;;2.10;;
69485;SDS011;56677;51.710;5.366;2022-09-17T03:35:18;5.20;;;2.10;;
69485;SDS011;56677;51.710;5.366;2022-09-17T03:37:43;5.47;;;2.60;;
69485;SDS011;56677;51.710;5.366;2022-09-17T03:40:08;3.75;;;1.80;;
69485;SDS011;56677;51.710;5.366;2022-09-17T03:42:33;4.07;;;1.70;;
69485;SDS011;56677;51.710;5.366;2022-09-17T03:44:58;4.50;;;2.22;;
69485;SDS011;56677;51.710;5.366;2022-09-17T03:47:24;4.67;;;1.93;;
69485;SDS011;56677;51.710;5.366;2022-09-17T03:49:49;5.30;;;2.08;;
69485;SDS011;56677;51.710;5.366;2022-09-17T03:52:14;4.75;;;2.05;;
69485;SDS011;56677;51.710;5.366;2022-09-17T03:54:39;6.05;;;1.92;;
69485;SDS011;56677;51.710;5.366;2022-09-17T03:57:04;4.13;;;2.23;;
69485;SDS011;56677;51.710;5.366;2022-09-17T03:59:29;5.35;;;2.60;;
69485;SDS011;56677;51.710;5.366;2022-09-17T04:01:54;4.97;;;2.07;;
69485;SDS011;56677;51.710;5.366;2022-09-17T04:04:20;4.83;;;2.17;;
69485;SDS011;56677;51.710;5.366;2022-09-17T04:06:45;6.38;;;2.20;;
69485;SDS011;56677;51.710;5.366;2022-09-17T04:09:10;4.28;;;1.63;;
69485;SDS011;56677;51.710;5.366;2022-09-17T04:11:35;5.40;;;2.03;;
69485;SDS011;56677;51.710;5.366;2022-09-17T04:14:00;5.35;;;2.38;;
69485;SDS011;56677;51.710;5.366;2022-09-17T04:16:25;4.37;;;1.90;;
69485;SDS011;56677;51.710;5.366;2022-09-17T04:18:50;5.35;;;2.38;;
69485;SDS011;56677;51.710;5.366;2022-09-17T04:21:15;4.95;;;2.22;;
69485;SDS011;56677;51.710;5.366;2022-09-17T04:23:41;5.85;;;2.10;;
69485;SDS011;56677;51.710;5.366;2022-09-17T04:26:06;4.03;;;1.67;;
69485;SDS011;56677;51.710;5.366;2022-09-17T04:28:31;4.70;;;1.90;;
69485;SDS011;56677;51.710;5.366;2022-09-17T04:30:56;4.50;;;1.93;;
69485;SDS011;56677;51.710;5.366;2022-09-17T04:33:21;3.95;;;2.40;;
69485;SDS011;56677;51.710;5.366;2022-09-17T04:35:46;4.45;;;2.10;;
69485;SDS011;56677;51.710;5.366;2022-09-17T04:38:11;4.63;;;1.93;;
69485;SDS011;56677;51.710;5.366;2022-09-17T04:40:37;4.18;;;1.73;;
69485;SDS011;56677;51.710;5.366;2022-09-17T04:43:02;3.90;;;1.90;;
69485;SDS011;56677;51.710;5.366;2022-09-17T04:45:27;4.40;;;2.10;;
69485;SDS011;56677;51.710;5.366;2022-09-17T04:47:52;4.53;;;1.70;;
69485;SDS011;56677;51.710;5.366;2022-09-17T04:50:18;4.30;;;1.77;;
69485;SDS011;56677;51.710;5.366;2022-09-17T04:52:43;4.13;;;1.70;;
69485;SDS011;56677;51.710;5.366;2022-09-17T04:55:09;5.70;;;1.93;;
69485;SDS011;56677;51.710;5.366;2022-09-17T04:57:34;4.03;;;1.50;;
69485;SDS011;56677;51.710;5.366;2022-09-17T04:59:59;4.45;;;1.85;;
69485;SDS011;56677;51.710;5.366;2022-09-17T05:02:25;4.13;;;1.60;;
69485;SDS011;56677;51.710;5.366;2022-09-17T05:04:50;4.40;;;1.80;;
69485;SDS011;56677;51.710;5.366;2022-09-17T05:07:15;3.97;;;1.65;;
69485;SDS011;56677;51.710;5.366;2022-09-17T05:09:40;4.73;;;1.60;;
69485;SDS011;56677;51.710;5.366;2022-09-17T05:12:05;4.25;;;1.48;;
69485;SDS011;56677;51.710;5.366;2022-09-17T05:14:30;3.77;;;1.47;;
69485;SDS011;56677;51.710;5.366;2022-09-17T05:16:55;5.07;;;1.80;;
69485;SDS011;56677;51.710;5.366;2022-09-17T05:19:21;4.05;;;1.60;;
69485;SDS011;56677;51.710;5.366;2022-09-17T05:21:46;4.72;;;1.60;;
69485;SDS011;56677;51.710;5.366;2022-09-17T05:24:11;4.65;;;1.65;;
69485;SDS011;56677;51.710;5.366;2022-09-17T05:26:36;3.90;;;1.80;;
69485;SDS011;56677;51.710;5.366;2022-09-17T05:29:01;4.82;;;1.65;;
69485;SDS011;56677;51.710;5.366;2022-09-17T05:31:26;4.87;;;1.90;;
69485;SDS011;56677;51.710;5.366;2022-09-17T05:33:51;4.50;;;2.00;;
69485;SDS011;56677;51.710;5.366;2022-09-17T05:36:16;3.92;;;1.83;;
69485;SDS011;56677;51.710;5.366;2022-09-17T05:38:42;5.10;;;1.80;;
69485;SDS011;56677;51.710;5.366;2022-09-17T05:41:07;5.15;;;1.90;;
69485;SDS011;56677;51.710;5.366;2022-09-17T05:43:32;3.53;;;1.70;;
69485;SDS011;56677;51.710;5.366;2022-09-17T05:46:03;4.07;;;1.80;;
69485;SDS011;56677;51.710;5.366;2022-09-17T05:48:29;4.95;;;1.90;;
69485;SDS011;56677;51.710;5.366;2022-09-17T05:50:54;4.90;;;2.00;;
69485;SDS011;56677;51.710;5.366;2022-09-17T05:53:19;4.50;;;2.00;;
69485;SDS011;56677;51.710;5.366;2022-09-17T05:55:45;4.03;;;1.77;;
69485;SDS011;56677;51.710;5.366;2022-09-17T05:58:11;3.63;;;1.80;;
69485;SDS011;56677;51.710;5.366;2022-09-17T06:00:36;3.50;;;1.90;;
69485;SDS011;56677;51.710;5.366;2022-09-17T06:03:01;5.10;;;2.17;;
69485;SDS011;56677;51.710;5.366;2022-09-17T06:05:27;4.68;;;1.92;;
69485;SDS011;56677;51.710;5.366;2022-09-17T06:07:52;3.90;;;1.30;;
69485;SDS011;56677;51.710;5.366;2022-09-17T06:10:17;3.40;;;1.33;;
69485;SDS011;56677;51.710;5.366;2022-09-17T06:12:42;3.50;;;1.73;;
69485;SDS011;56677;51.710;5.366;2022-09-17T06:15:07;4.38;;;1.25;;
69485;SDS011;56677;51.710;5.366;2022-09-17T06:17:33;4.17;;;1.60;;
69485;SDS011;56677;51.710;5.366;2022-09-17T06:19:58;3.50;;;1.30;;
69485;SDS011;56677;51.710;5.366;2022-09-17T06:22:24;2.97;;;1.50;;
69485;SDS011;56677;51.710;5.366;2022-09-17T06:24:49;3.97;;;1.87;;
69485;SDS011;56677;51.710;5.366;2022-09-17T06:27:14;5.10;;;1.85;;
69485;SDS011;56677;51.710;5.366;2022-09-17T06:29:39;3.38;;;1.40;;
69485;SDS011;56677;51.710;5.366;2022-09-17T06:32:06;3.63;;;1.55;;
69485;SDS011;56677;51.710;5.366;2022-09-17T06:34:31;4.23;;;1.47;;
69485;SDS011;56677;51.710;5.366;2022-09-17T06:36:56;3.88;;;1.33;;
69485;SDS011;56677;51.710;5.366;2022-09-17T06:39:21;3.92;;;1.40;;
69485;SDS011;56677;51.710;5.366;2022-09-17T06:41:46;3.60;;;1.60;;
69485;SDS011;56677;51.710;5.366;2022-09-17T06:44:12;3.85;;;1.50;;
69485;SDS011;56677;51.710;5.366;2022-09-17T06:46:37;5.23;;;1.50;;
69485;SDS011;56677;51.710;5.366;2022-09-17T06:49:02;6.53;;;1.50;;
69485;SDS011;56677;51.710;5.366;2022-09-17T06:51:27;4.60;;;1.10;;
69485;SDS011;56677;51.710;5.366;2022-09-17T06:53:52;3.93;;;1.20;;
69485;SDS011;56677;51.710;5.366;2022-09-17T06:56:17;5.73;;;1.60;;
69485;SDS011;56677;51.710;5.366;2022-09-17T06:58:42;6.93;;;1.60;;
69485;SDS011;56677;51.710;5.366;2022-09-17T07:01:08;5.43;;;1.43;;
69485;SDS011;56677;51.710;5.366;2022-09-17T07:03:34;7.63;;;2.00;;
69485;SDS011;56677;51.710;5.366;2022-09-17T07:05:59;5.27;;;1.20;;
69485;SDS011;56677;51.710;5.366;2022-09-17T07:08:24;2.97;;;1.33;;
69485;SDS011;56677;51.710;5.366;2022-09-17T07:10:50;3.73;;;1.27;;
69485;SDS011;56677;51.710;5.366;2022-09-17T07:13:15;5.00;;;1.43;;
69485;SDS011;56677;51.710;5.366;2022-09-17T07:15:40;4.88;;;1.50;;
69485;SDS011;56677;51.710;5.366;2022-09-17T07:18:09;8.37;;;1.50;;
69485;SDS011;56677;51.710;5.366;2022-09-17T07:20:34;4.15;;;1.63;;
69485;SDS011;56677;51.710;5.366;2022-09-17T07:22:59;3.73;;;1.50;;
69485;SDS011;56677;51.710;5.366;2022-09-17T07:25:24;3.60;;;1.30;;
69485;SDS011;56677;51.710;5.366;2022-09-17T07:27:50;3.53;;;1.43;;
69485;SDS011;56677;51.710;5.366;2022-09-17T07:30:15;5.93;;;1.60;;
69485;SDS011;56677;51.710;5.366;2022-09-17T07:32:40;3.67;;;1.30;;
69485;SDS011;56677;51.710;5.366;2022-09-17T07:35:05;3.80;;;1.52;;
69485;SDS011;56677;51.710;5.366;2022-09-17T07:37:30;3.97;;;1.60;;
69485;SDS011;56677;51.710;5.366;2022-09-17T07:39:55;4.43;;;1.45;;
69485;SDS011;56677;51.710;5.366;2022-09-17T07:42:21;5.80;;;1.48;;
69485;SDS011;56677;51.710;5.366;2022-09-17T07:44:46;4.50;;;1.35;;
69485;SDS011;56677;51.710;5.366;2022-09-17T07:47:11;6.22;;;1.40;;
69485;SDS011;56677;51.710;5.366;2022-09-17T07:49:36;4.50;;;1.27;;
69485;SDS011;56677;51.710;5.366;2022-09-17T07:52:02;4.45;;;1.42;;
69485;SDS011;56677;51.710;5.366;2022-09-17T07:54:27;4.73;;;1.13;;
69485;SDS011;56677;51.710;5.366;2022-09-17T07:56:52;4.35;;;1.60;;
69485;SDS011;56677;51.710;5.366;2022-09-17T07:59:17;2.83;;;1.10;;
69485;SDS011;56677;51.710;5.366;2022-09-17T08:01:42;4.10;;;1.37;;
69485;SDS011;56677;51.710;5.366;2022-09-17T08:04:07;4.43;;;1.33;;
69485;SDS011;56677;51.710;5.366;2022-09-17T08:06:35;5.97;;;1.40;;
69485;SDS011;56677;51.710;5.366;2022-09-17T08:09:00;6.43;;;1.40;;
69485;SDS011;56677;51.710;5.366;2022-09-17T08:11:26;4.00;;;1.10;;
69485;SDS011;56677;51.710;5.366;2022-09-17T08:13:52;8.88;;;1.27;;
69485;SDS011;56677;51.710;5.366;2022-09-17T08:16:17;6.88;;;1.33;;
69485;SDS011;56677;51.710;5.366;2022-09-17T08:18:43;5.13;;;1.50;;
69485;SDS011;56677;51.710;5.366;2022-09-17T08:21:09;3.37;;;1.27;;
69485;SDS011;56677;51.710;5.366;2022-09-17T08:23:35;3.47;;;1.30;;
69485;SDS011;56677;51.710;5.366;2022-09-17T08:26:00;3.35;;;1.25;;
69485;SDS011;56677;51.710;5.366;2022-09-17T08:28:27;4.70;;;1.60;;
69485;SDS011;56677;51.710;5.366;2022-09-17T08:30:53;3.75;;;0.98;;
69485;SDS011;56677;51.710;5.366;2022-09-17T08:33:18;7.27;;;1.40;;
69485;SDS011;56677;51.710;5.366;2022-09-17T08:35:50;6.53;;;1.40;;
69485;SDS011;56677;51.710;5.366;2022-09-17T08:38:15;3.57;;;1.20;;
69485;SDS011;56677;51.710;5.366;2022-09-17T08:40:42;8.88;;;1.27;;
69485;SDS011;56677;51.710;5.366;2022-09-17T08:43:09;8.10;;;1.30;;
69485;SDS011;56677;51.710;5.366;2022-09-17T08:45:38;5.30;;;1.20;;
69485;SDS011;56677;51.710;5.366;2022-09-17T08:48:03;6.70;;;1.27;;
69485;SDS011;56677;51.710;5.366;2022-09-17T08:50:33;4.47;;;1.23;;
69485;SDS011;56677;51.710;5.366;2022-09-17T08:53:01;4.13;;;1.15;;
69485;SDS011;56677;51.710;5.366;2022-09-17T09:01:18;4.85;;;1.30;;
69485;SDS011;56677;51.710;5.366;2022-09-17T09:06:21;4.30;;;1.75;;
69485;SDS011;56677;51.710;5.366;2022-09-17T09:08:53;4.75;;;1.10;;
69485;SDS011;56677;51.710;5.366;2022-09-17T09:11:21;5.77;;;1.30;;
69485;SDS011;56677;51.710;5.366;2022-09-17T09:13:48;5.18;;;1.35;;
69485;SDS011;56677;51.710;5.366;2022-09-17T09:18:39;2.85;;;0.88;;
69485;SDS011;56677;51.710;5.366;2022-09-17T09:23:49;2.67;;;0.98;;
69485;SDS011;56677;51.710;5.366;2022-09-17T09:26:17;5.85;;;1.30;;
69485;SDS011;56677;51.710;5.366;2022-09-17T09:28:48;5.13;;;1.30;;
69485;SDS011;56677;51.710;5.366;2022-09-17T09:33:47;3.53;;;1.03;;
69485;SDS011;56677;51.710;5.366;2022-09-17T09:36:13;3.47;;;1.02;;
69485;SDS011;56677;51.710;5.366;2022-09-17T09:38:42;6.30;;;1.40;;
69485;SDS011;56677;51.710;5.366;2022-09-17T09:41:12;3.53;;;1.13;;
69485;SDS011;56677;51.710;5.366;2022-09-17T09:48:37;5.00;;;1.40;;
69485;SDS011;56677;51.710;5.366;2022-09-17T09:51:24;6.03;;;1.40;;
69485;SDS011;56677;51.710;5.366;2022-09-17T09:56:59;4.53;;;1.17;;
69485;SDS011;56677;51.710;5.366;2022-09-17T09:59:26;2.70;;;0.80;;
69485;SDS011;56677;51.710;5.366;2022-09-17T10:01:51;3.83;;;1.07;;
69485;SDS011;56677;51.710;5.366;2022-09-17T10:06:41;4.10;;;1.10;;
69485;SDS011;56677;51.710;5.366;2022-09-17T10:11:32;4.15;;;1.20;;
69485;SDS011;56677;51.710;5.366;2022-09-17T10:16:41;6.03;;;1.40;;
69485;SDS011;56677;51.710;5.366;2022-09-17T10:21:32;4.20;;;1.00;;
69485;SDS011;56677;51.710;5.366;2022-09-17T10:23:58;4.55;;;1.40;;
69485;SDS011;56677;51.710;5.366;2022-09-17T10:26:24;2.85;;;1.00;;
69485;SDS011;56677;51.710;5.366;2022-09-17T10:28:52;5.33;;;1.50;;
69485;SDS011;56677;51.710;5.366;2022-09-17T10:31:18;3.17;;;1.05;;
69485;SDS011;56677;51.710;5.366;2022-09-17T10:33:50;3.07;;;1.03;;
69485;SDS011;56677;51.710;5.366;2022-09-17T10:36:16;4.13;;;1.10;;
69485;SDS011;56677;51.710;5.366;2022-09-17T10:38:42;3.13;;;0.90;;
69485;SDS011;56677;51.710;5.366;2022-09-17T10:41:20;6.18;;;1.02;;
69485;SDS011;56677;51.710;5.366;2022-09-17T10:43:46;3.70;;;1.27;;
69485;SDS011;56677;51.710;5.366;2022-09-17T10:46:29;2.70;;;0.90;;
69485;SDS011;56677;51.710;5.366;2022-09-17T10:51:39;3.78;;;1.10;;
69485;SDS011;56677;51.710;5.366;2022-09-17T10:54:06;4.90;;;1.33;;
69485;SDS011;56677;51.710;5.366;2022-09-17T10:56:39;4.18;;;1.25;;
69485;SDS011;56677;51.710;5.366;2022-09-17T11:01:52;3.00;;;0.90;;
69485;SDS011;56677;51.710;5.366;2022-09-17T11:04:21;4.32;;;1.00;;
69485;SDS011;56677;51.710;5.366;2022-09-17T11:09:20;2.67;;;0.95;;
69485;SDS011;56677;51.710;5.366;2022-09-17T11:11:56;2.65;;;1.20;;
69485;SDS011;56677;51.710;5.366;2022-09-17T11:17:02;4.18;;;1.35;;
69485;SDS011;56677;51.710;5.366;2022-09-17T11:19:45;2.15;;;1.05;;
69485;SDS011;56677;51.710;5.366;2022-09-17T11:24:55;3.53;;;1.10;;
69485;SDS011;56677;51.710;5.366;2022-09-17T11:30:21;2.90;;;1.27;;
69485;SDS011;56677;51.710;5.366;2022-09-17T11:35:22;4.82;;;1.30;;
69485;SDS011;56677;51.710;5.366;2022-09-17T11:38:07;2.28;;;1.00;;
69485;SDS011;56677;51.710;5.366;2022-09-17T11:43:01;2.20;;;0.90;;
69485;SDS011;56677;51.710;5.366;2022-09-17T11:45:49;4.00;;;1.40;;
69485;SDS011;56677;51.710;5.366;2022-09-17T11:48:14;2.88;;;1.25;;
69485;SDS011;56677;51.710;5.366;2022-09-17T11:50:43;2.97;;;1.13;;
69485;SDS011;56677;51.710;5.366;2022-09-17T11:55:47;4.43;;;1.10;;
69485;SDS011;56677;51.710;5.366;2022-09-17T11:58:16;7.33;;;1.30;;
69485;SDS011;56677;51.710;5.366;2022-09-17T12:00:48;3.90;;;0.98;;
69485;SDS011;56677;51.710;5.366;2022-09-17T12:03:17;2.90;;;0.90;;
69485;SDS011;56677;51.710;5.366;2022-09-17T12:05:52;6.45;;;1.10;;
69485;SDS011;56677;51.710;5.366;2022-09-17T12:08:30;2.88;;;1.00;;
69485;SDS011;56677;51.710;5.366;2022-09-17T12:13:39;2.40;;;1.10;;
69485;SDS011;56677;51.710;5.366;2022-09-17T12:20:57;5.80;;;1.30;;
69485;SDS011;56677;51.710;5.366;2022-09-17T12:23:31;3.83;;;1.00;;
69485;SDS011;56677;51.710;5.366;2022-09-17T12:26:02;5.68;;;1.10;;
69485;SDS011;56677;51.710;5.366;2022-09-17T12:28:31;4.13;;;1.20;;
69485;SDS011;56677;51.710;5.366;2022-09-17T12:31:08;3.25;;;0.98;;
69485;SDS011;56677;51.710;5.366;2022-09-17T12:33:37;2.35;;;1.00;;
69485;SDS011;56677;51.710;5.366;2022-09-17T12:43:54;2.67;;;1.05;;
69485;SDS011;56677;51.710;5.366;2022-09-17T12:46:39;3.75;;;0.73;;
69485;SDS011;56677;51.710;5.366;2022-09-17T12:59:24;5.20;;;1.30;;
69485;SDS011;56677;51.710;5.366;2022-09-17T13:02:00;4.75;;;1.02;;
69485;SDS011;56677;51.710;5.366;2022-09-17T13:07:13;6.13;;;1.40;;
69485;SDS011;56677;51.710;5.366;2022-09-17T13:15:00;6.43;;;1.17;;
69485;SDS011;56677;51.710;5.366;2022-09-17T13:20:23;4.07;;;1.20;;
69485;SDS011;56677;51.710;5.366;2022-09-17T13:22:50;4.35;;;1.00;;
69485;SDS011;56677;51.710;5.366;2022-09-17T13:25:17;4.65;;;1.27;;
69485;SDS011;56677;51.710;5.366;2022-09-17T13:27:43;3.80;;;1.13;;
69485;SDS011;56677;51.710;5.366;2022-09-17T13:30:09;5.35;;;1.05;;
69485;SDS011;56677;51.710;5.366;2022-09-17T13:42:46;5.87;;;1.60;;
69485;SDS011;56677;51.710;5.366;2022-09-17T13:45:13;5.45;;;1.35;;
69485;SDS011;56677;51.710;5.366;2022-09-17T13:47:47;5.93;;;1.25;;
69485;SDS011;56677;51.710;5.366;2022-09-17T13:50:23;6.60;;;1.25;;
69485;SDS011;56677;51.710;5.366;2022-09-17T13:52:49;6.00;;;1.35;;
69485;SDS011;56677;51.710;5.366;2022-09-17T13:57:59;5.72;;;0.80;;
69485;SDS011;56677;51.710;5.366;2022-09-17T14:03:26;3.65;;;1.30;;
69485;SDS011;56677;51.710;5.366;2022-09-17T14:13:50;4.32;;;1.42;;
69485;SDS011;56677;51.710;5.366;2022-09-17T14:19:02;7.22;;;1.25;;
69485;SDS011;56677;51.710;5.366;2022-09-17T14:21:31;5.47;;;1.60;;
69485;SDS011;56677;51.710;5.366;2022-09-17T14:23:58;6.90;;;1.30;;
69485;SDS011;56677;51.710;5.366;2022-09-17T14:26:27;3.85;;;1.25;;
69485;SDS011;56677;51.710;5.366;2022-09-17T14:29:01;6.05;;;1.10;;
69485;SDS011;56677;51.710;5.366;2022-09-17T14:31:32;4.53;;;1.17;;
69485;SDS011;56677;51.710;5.366;2022-09-17T14:34:01;5.53;;;1.30;;
69485;SDS011;56677;51.710;5.366;2022-09-17T14:36:26;5.93;;;1.65;;
69485;SDS011;56677;51.710;5.366;2022-09-17T14:38:52;5.15;;;1.20;;
69485;SDS011;56677;51.710;5.366;2022-09-17T14:41:23;4.83;;;1.50;;
69485;SDS011;56677;51.710;5.366;2022-09-17T14:46:21;5.03;;;1.45;;
69485;SDS011;56677;51.710;5.366;2022-09-17T14:48:47;6.72;;;1.40;;
69485;SDS011;56677;51.710;5.366;2022-09-17T14:53:40;4.75;;;1.23;;
69485;SDS011;56677;51.710;5.366;2022-09-17T14:56:06;4.50;;;1.10;;
69485;SDS011;56677;51.710;5.366;2022-09-17T14:58:34;5.00;;;0.97;;
69485;SDS011;56677;51.710;5.366;2022-09-17T15:01:01;4.00;;;0.90;;
69485;SDS011;56677;51.710;5.366;2022-09-17T15:03:26;4.22;;;1.30;;
69485;SDS011;56677;51.710;5.366;2022-09-17T15:05:51;5.10;;;1.30;;
69485;SDS011;56677;51.710;5.366;2022-09-17T15:08:17;4.47;;;1.50;;
69485;SDS011;56677;51.710;5.366;2022-09-17T15:13:16;3.80;;;1.40;;
69485;SDS011;56677;51.710;5.366;2022-09-17T15:15:55;7.10;;;1.63;;
69485;SDS011;56677;51.710;5.366;2022-09-17T15:18:21;7.57;;;1.60;;
69485;SDS011;56677;51.710;5.366;2022-09-17T15:20:50;7.25;;;1.60;;
69485;SDS011;56677;51.710;5.366;2022-09-17T15:23:23;5.28;;;1.60;;
69485;SDS011;56677;51.710;5.366;2022-09-17T15:25:49;4.85;;;1.70;;
69485;SDS011;56677;51.710;5.366;2022-09-17T15:30:50;3.90;;;1.60;;
69485;SDS011;56677;51.710;5.366;2022-09-17T15:33:15;3.35;;;1.38;;
69485;SDS011;56677;51.710;5.366;2022-09-17T15:35:41;6.03;;;1.87;;
69485;SDS011;56677;51.710;5.366;2022-09-17T15:38:25;4.50;;;1.30;;
69485;SDS011;56677;51.710;5.366;2022-09-17T15:40:51;5.30;;;1.50;;
69485;SDS011;56677;51.710;5.366;2022-09-17T15:43:20;4.63;;;1.27;;
69485;SDS011;56677;51.710;5.366;2022-09-17T15:45:48;5.75;;;1.50;;
69485;SDS011;56677;51.710;5.366;2022-09-17T15:48:57;5.57;;;1.60;;
69485;SDS011;56677;51.710;5.366;2022-09-17T15:51:03;10.70;;;1.60;;
69485;SDS011;56677;51.710;5.366;2022-09-17T15:53:29;8.02;;;1.90;;
69485;SDS011;56677;51.710;5.366;2022-09-17T15:56:08;6.27;;;1.53;;
69485;SDS011;56677;51.710;5.366;2022-09-17T16:08:41;5.65;;;1.40;;
69485;SDS011;56677;51.710;5.366;2022-09-17T16:11:06;5.07;;;1.30;;
69485;SDS011;56677;51.710;5.366;2022-09-17T16:13:31;3.25;;;1.40;;
69485;SDS011;56677;51.710;5.366;2022-09-17T16:15:56;3.17;;;1.38;;
69485;SDS011;56677;51.710;5.366;2022-09-17T16:18:22;6.33;;;1.23;;
69485;SDS011;56677;51.710;5.366;2022-09-17T16:20:47;5.30;;;1.40;;
69485;SDS011;56677;51.710;5.366;2022-09-17T16:23:12;6.93;;;1.48;;
69485;SDS011;56677;51.710;5.366;2022-09-17T16:25:38;4.60;;;1.63;;
69485;SDS011;56677;51.710;5.366;2022-09-17T16:28:05;3.70;;;1.20;;
69485;SDS011;56677;51.710;5.366;2022-09-17T16:30:30;5.68;;;1.50;;
69485;SDS011;56677;51.710;5.366;2022-09-17T16:32:55;3.87;;;1.60;;
69485;SDS011;56677;51.710;5.366;2022-09-17T16:35:22;5.07;;;1.17;;
69485;SDS011;56677;51.710;5.366;2022-09-17T16:37:51;4.75;;;1.48;;
69485;SDS011;56677;51.710;5.366;2022-09-17T16:40:16;5.82;;;1.55;;
69485;SDS011;56677;51.710;5.366;2022-09-17T16:42:42;7.50;;;1.47;;
69485;SDS011;56677;51.710;5.366;2022-09-17T16:45:07;7.15;;;1.50;;
69485;SDS011;56677;51.710;5.366;2022-09-17T16:47:33;3.63;;;1.10;;
69485;SDS011;56677;51.710;5.366;2022-09-17T16:49:58;5.63;;;1.70;;
69485;SDS011;56677;51.710;5.366;2022-09-17T16:52:23;8.13;;;1.88;;
69485;SDS011;56677;51.710;5.366;2022-09-17T16:54:48;2.75;;;1.25;;
69485;SDS011;56677;51.710;5.366;2022-09-17T16:57:13;3.57;;;1.37;;
69485;SDS011;56677;51.710;5.366;2022-09-17T16:59:38;3.60;;;0.93;;
69485;SDS011;56677;51.710;5.366;2022-09-17T17:02:04;5.77;;;1.30;;
69485;SDS011;56677;51.710;5.366;2022-09-17T17:04:29;5.88;;;1.00;;
69485;SDS011;56677;51.710;5.366;2022-09-17T17:06:54;5.20;;;1.27;;
69485;SDS011;56677;51.710;5.366;2022-09-17T17:09:19;5.45;;;1.40;;
69485;SDS011;56677;51.710;5.366;2022-09-17T17:11:44;6.35;;;1.30;;
69485;SDS011;56677;51.710;5.366;2022-09-17T17:14:09;6.03;;;1.30;;
69485;SDS011;56677;51.710;5.366;2022-09-17T17:16:34;5.87;;;1.10;;
69485;SDS011;56677;51.710;5.366;2022-09-17T17:19:00;4.30;;;0.98;;
69485;SDS011;56677;51.710;5.366;2022-09-17T17:21:25;2.73;;;1.10;;
69485;SDS011;56677;51.710;5.366;2022-09-17T17:23:50;4.07;;;1.10;;
69485;SDS011;56677;51.710;5.366;2022-09-17T17:26:15;4.72;;;1.20;;
69485;SDS011;56677;51.710;5.366;2022-09-17T17:28:40;3.90;;;1.10;;
69485;SDS011;56677;51.710;5.366;2022-09-17T17:31:06;4.20;;;1.10;;
69485;SDS011;56677;51.710;5.366;2022-09-17T17:33:31;5.70;;;1.50;;
69485;SDS011;56677;51.710;5.366;2022-09-17T17:36:00;5.25;;;1.00;;
69485;SDS011;56677;51.710;5.366;2022-09-17T17:38:25;6.67;;;1.30;;
69485;SDS011;56677;51.710;5.366;2022-09-17T17:41:00;5.83;;;1.50;;